sensor_id;sensor_type;location;lat;lon;timestamp;pressure;altitude;pressure_sealevel;temperature;humidity
66681;BME280;53575;51.366;12.350;2022-07-23T00:00:29;100352.31;;;20.08;70.16
66681;BME280;53575;51.366;12.350;2022-07-23T00:02:54;100346.06;;;20.09;70.04
66681;BME280;53575;51.366;12.350;2022-07-23T00:05:20;100355.03;;;20.25;69.39
66681;BME280;53575;51.366;12.350;2022-07-23T00:07:45;100358.34;;;20.11;70.08
66681;BME280;53575;51.366;12.350;2022-07-23T00:10:11;100362.91;;;20.08;70.32
66681;BME280;53575;51.366;12.350;2022-07-23T00:12:37;100353.38;;;20.04;70.50
66681;BME280;53575;51.366;12.350;2022-07-23T00:15:04;100345.06;;;20.11;70.31
66681;BME280;53575;51.366;12.350;2022-07-23T00:17:30;100342.00;;;20.20;69.68
66681;BME280;53575;51.366;12.350;2022-07-23T00:19:55;100343.16;;;20.15;69.86
66681;BME280;53575;51.366;12.350;2022-07-23T00:22:21;100332.78;;;20.09;70.07
66681;BME280;53575;51.366;12.350;2022-07-23T00:24:46;100339.03;;;20.08;70.23
66681;BME280;53575;51.366;12.350;2022-07-23T00:27:11;100338.19;;;20.07;70.40
66681;BME280;53575;51.366;12.350;2022-07-23T00:29:37;100321.72;;;19.99;70.35
66681;BME280;53575;51.366;12.350;2022-07-23T00:32:02;100326.91;;;20.02;70.59
66681;BME280;53575;51.366;12.350;2022-07-23T00:34:28;100323.59;;;19.97;70.49
66681;BME280;53575;51.366;12.350;2022-07-23T00:36:53;100336.22;;;19.92;71.01
66681;BME280;53575;51.366;12.350;2022-07-23T00:39:19;100335.41;;;19.90;71.01
66681;BME280;53575;51.366;12.350;2022-07-23T00:41:46;100317.69;;;19.90;70.93
66681;BME280;53575;51.366;12.350;2022-07-23T00:44:20;100311.47;;;19.91;70.87
66681;BME280;53575;51.366;12.350;2022-07-23T00:46:57;100312.25;;;19.93;70.93
66681;BME280;53575;51.366;12.350;2022-07-23T00:49:24;100311.44;;;20.12;69.97
66681;BME280;53575;51.366;12.350;2022-07-23T00:51:51;100295.94;;;20.21;69.67
66681;BME280;53575;51.366;12.350;2022-07-23T00:54:17;100296.78;;;20.03;70.19
66681;BME280;53575;51.366;12.350;2022-07-23T00:56:44;100294.47;;;19.95;70.65
66681;BME280;53575;51.366;12.350;2022-07-23T00:59:10;100298.19;;;19.91;70.79
66681;BME280;53575;51.366;12.350;2022-07-23T01:01:36;100302.69;;;20.10;70.14
66681;BME280;53575;51.366;12.350;2022-07-23T01:04:01;100299.50;;;20.02;70.44
66681;BME280;53575;51.366;12.350;2022-07-23T01:06:27;100296.44;;;20.11;70.27
66681;BME280;53575;51.366;12.350;2022-07-23T01:08:54;100293.09;;;20.26;69.47
66681;BME280;53575;51.366;12.350;2022-07-23T01:11:20;100288.19;;;20.17;69.69
66681;BME280;53575;51.366;12.350;2022-07-23T01:13:47;100288.63;;;20.08;69.98
66681;BME280;53575;51.366;12.350;2022-07-23T01:16:12;100286.16;;;20.03;70.20
66681;BME280;53575;51.366;12.350;2022-07-23T01:18:38;100282.44;;;19.88;70.62
66681;BME280;53575;51.366;12.350;2022-07-23T01:21:03;100282.97;;;19.76;70.93
66681;BME280;53575;51.366;12.350;2022-07-23T01:23:29;100277.28;;;19.85;70.53
66681;BME280;53575;51.366;12.350;2022-07-23T01:25:55;100264.91;;;19.65;70.98
66681;BME280;53575;51.366;12.350;2022-07-23T01:28:21;100272.78;;;19.67;71.35
66681;BME280;53575;51.366;12.350;2022-07-23T01:30:46;100269.34;;;19.65;71.14
66681;BME280;53575;51.366;12.350;2022-07-23T01:33:12;100270.34;;;19.62;71.37
66681;BME280;53575;51.366;12.350;2022-07-23T01:35:37;100270.44;;;19.59;71.34
66681;BME280;53575;51.366;12.350;2022-07-23T01:38:03;100264.56;;;19.73;70.97
66681;BME280;53575;51.366;12.350;2022-07-23T01:40:28;100271.41;;;19.98;69.88
66681;BME280;53575;51.366;12.350;2022-07-23T01:42:54;100263.66;;;19.93;69.91
66681;BME280;53575;51.366;12.350;2022-07-23T01:45:19;100272.09;;;19.82;70.46
66681;BME280;53575;51.366;12.350;2022-07-23T01:47:45;100267.06;;;19.76;70.65
66681;BME280;53575;51.366;12.350;2022-07-23T01:50:10;100258.47;;;19.71;70.64
66681;BME280;53575;51.366;12.350;2022-07-23T01:52:35;100258.38;;;19.72;70.77
66681;BME280;53575;51.366;12.350;2022-07-23T01:55:01;100259.41;;;19.70;70.79
66681;BME280;53575;51.366;12.350;2022-07-23T01:57:26;100261.25;;;19.68;71.29
66681;BME280;53575;51.366;12.350;2022-07-23T01:59:51;100243.09;;;19.59;71.48
66681;BME280;53575;51.366;12.350;2022-07-23T02:02:17;100253.88;;;19.75;70.84
66681;BME280;53575;51.366;12.350;2022-07-23T02:04:42;100235.03;;;19.60;71.00
66681;BME280;53575;51.366;12.350;2022-07-23T02:07:08;100261.66;;;19.98;69.87
66681;BME280;53575;51.366;12.350;2022-07-23T02:09:33;100253.03;;;19.74;70.27
66681;BME280;53575;51.366;12.350;2022-07-23T02:11:59;100258.34;;;19.74;70.32
66681;BME280;53575;51.366;12.350;2022-07-23T02:14:25;100261.13;;;19.71;70.43
66681;BME280;53575;51.366;12.350;2022-07-23T02:16:51;100258.91;;;19.60;70.66
66681;BME280;53575;51.366;12.350;2022-07-23T02:19:16;100275.56;;;19.64;70.35
66681;BME280;53575;51.366;12.350;2022-07-23T02:21:42;100247.38;;;19.41;70.42
66681;BME280;53575;51.366;12.350;2022-07-23T02:24:07;100258.97;;;19.59;69.38
66681;BME280;53575;51.366;12.350;2022-07-23T02:26:33;100287.03;;;19.64;69.93
66681;BME280;53575;51.366;12.350;2022-07-23T02:29:00;100277.41;;;19.41;70.33
66681;BME280;53575;51.366;12.350;2022-07-23T02:31:26;100300.34;;;19.42;70.77
66681;BME280;53575;51.366;12.350;2022-07-23T02:33:52;100294.88;;;19.45;71.18
66681;BME280;53575;51.366;12.350;2022-07-23T02:36:17;100297.00;;;19.37;71.89
66681;BME280;53575;51.366;12.350;2022-07-23T02:38:43;100285.88;;;19.29;72.09
66681;BME280;53575;51.366;12.350;2022-07-23T02:41:08;100299.13;;;19.29;72.17
66681;BME280;53575;51.366;12.350;2022-07-23T02:43:33;100292.53;;;19.39;71.11
66681;BME280;53575;51.366;12.350;2022-07-23T02:45:59;100282.25;;;19.32;71.41
66681;BME280;53575;51.366;12.350;2022-07-23T02:48:26;100294.88;;;19.25;71.78
66681;BME280;53575;51.366;12.350;2022-07-23T02:50:51;100289.78;;;19.20;71.88
66681;BME280;53575;51.366;12.350;2022-07-23T02:53:17;100273.47;;;19.09;71.86
66681;BME280;53575;51.366;12.350;2022-07-23T02:55:43;100284.16;;;19.28;71.32
66681;BME280;53575;51.366;12.350;2022-07-23T02:58:08;100286.47;;;19.56;69.70
66681;BME280;53575;51.366;12.350;2022-07-23T03:00:33;100281.91;;;19.39;69.77
66681;BME280;53575;51.366;12.350;2022-07-23T03:02:59;100287.34;;;19.36;69.71
66681;BME280;53575;51.366;12.350;2022-07-23T03:05:24;100281.09;;;19.37;69.70
66681;BME280;53575;51.366;12.350;2022-07-23T03:07:49;100279.25;;;19.60;68.78
66681;BME280;53575;51.366;12.350;2022-07-23T03:10:15;100280.81;;;19.23;69.62
66681;BME280;53575;51.366;12.350;2022-07-23T03:12:40;100279.31;;;19.38;69.61
66681;BME280;53575;51.366;12.350;2022-07-23T03:15:07;100271.53;;;19.35;69.58
66681;BME280;53575;51.366;12.350;2022-07-23T03:17:32;100277.06;;;19.29;69.41
66681;BME280;53575;51.366;12.350;2022-07-23T03:19:57;100268.53;;;19.42;69.10
66681;BME280;53575;51.366;12.350;2022-07-23T03:22:23;100248.78;;;19.29;69.30
66681;BME280;53575;51.366;12.350;2022-07-23T03:24:48;100251.88;;;19.59;68.15
66681;BME280;53575;51.366;12.350;2022-07-23T03:27:27;100250.00;;;19.42;68.23
66681;BME280;53575;51.366;12.350;2022-07-23T03:29:55;100248.88;;;19.28;69.15
66681;BME280;53575;51.366;12.350;2022-07-23T03:32:21;100247.84;;;19.30;68.91
66681;BME280;53575;51.366;12.350;2022-07-23T03:34:47;100231.44;;;19.02;69.64
66681;BME280;53575;51.366;12.350;2022-07-23T03:37:13;100240.56;;;18.94;70.24
66681;BME280;53575;51.366;12.350;2022-07-23T03:39:38;100242.66;;;18.86;70.75
66681;BME280;53575;51.366;12.350;2022-07-23T03:42:04;100244.66;;;18.81;70.72
66681;BME280;53575;51.366;12.350;2022-07-23T03:44:29;100251.38;;;18.88;70.14
66681;BME280;53575;51.366;12.350;2022-07-23T03:46:55;100255.09;;;18.84;70.29
66681;BME280;53575;51.366;12.350;2022-07-23T03:49:20;100244.78;;;18.78;70.00
66681;BME280;53575;51.366;12.350;2022-07-23T03:51:46;100239.03;;;18.89;69.98
66681;BME280;53575;51.366;12.350;2022-07-23T03:54:11;100244.91;;;18.95;69.42
66681;BME280;53575;51.366;12.350;2022-07-23T03:56:37;100247.56;;;18.95;69.14
66681;BME280;53575;51.366;12.350;2022-07-23T03:59:02;100256.84;;;18.85;69.42
66681;BME280;53575;51.366;12.350;2022-07-23T04:01:28;100265.75;;;19.05;69.14
66681;BME280;53575;51.366;12.350;2022-07-23T04:03:53;100268.81;;;18.94;69.49
66681;BME280;53575;51.366;12.350;2022-07-23T04:06:19;100272.72;;;18.85;69.60
66681;BME280;53575;51.366;12.350;2022-07-23T04:08:44;100296.88;;;18.78;69.78
66681;BME280;53575;51.366;12.350;2022-07-23T04:11:09;100344.38;;;18.81;69.58
66681;BME280;53575;51.366;12.350;2022-07-23T04:13:35;100396.06;;;18.44;71.04
66681;BME280;53575;51.366;12.350;2022-07-23T04:16:00;100423.13;;;18.27;71.96
66681;BME280;53575;51.366;12.350;2022-07-23T04:18:25;100428.44;;;18.02;73.18
66681;BME280;53575;51.366;12.350;2022-07-23T04:20:51;100424.25;;;18.20;72.96
66681;BME280;53575;51.366;12.350;2022-07-23T04:23:17;100408.66;;;18.12;72.68
66681;BME280;53575;51.366;12.350;2022-07-23T04:25:42;100413.66;;;18.20;72.75
66681;BME280;53575;51.366;12.350;2022-07-23T04:28:08;100410.50;;;18.10;73.12
66681;BME280;53575;51.366;12.350;2022-07-23T04:30:33;100418.66;;;18.04;73.36
66681;BME280;53575;51.366;12.350;2022-07-23T04:32:59;100373.78;;;18.26;72.96
66681;BME280;53575;51.366;12.350;2022-07-23T04:35:24;100326.38;;;18.20;73.35
66681;BME280;53575;51.366;12.350;2022-07-23T04:37:49;100322.19;;;18.14;74.33
66681;BME280;53575;51.366;12.350;2022-07-23T04:40:15;100330.03;;;18.17;75.54
66681;BME280;53575;51.366;12.350;2022-07-23T04:42:41;100297.72;;;18.33;76.01
66681;BME280;53575;51.366;12.350;2022-07-23T04:45:07;100282.50;;;18.38;75.87
66681;BME280;53575;51.366;12.350;2022-07-23T04:47:32;100255.41;;;18.31;77.62
66681;BME280;53575;51.366;12.350;2022-07-23T04:49:57;100243.88;;;18.34;78.42
66681;BME280;53575;51.366;12.350;2022-07-23T04:52:24;100239.81;;;18.25;78.58
66681;BME280;53575;51.366;12.350;2022-07-23T04:54:49;100226.34;;;18.08;80.27
66681;BME280;53575;51.366;12.350;2022-07-23T04:57:15;100232.50;;;18.08;81.28
66681;BME280;53575;51.366;12.350;2022-07-23T04:59:40;100226.72;;;17.98;81.40
66681;BME280;53575;51.366;12.350;2022-07-23T05:02:06;100218.50;;;18.06;82.13
66681;BME280;53575;51.366;12.350;2022-07-23T05:04:31;100226.75;;;18.20;81.38
66681;BME280;53575;51.366;12.350;2022-07-23T05:06:57;100238.22;;;17.97;81.13
66681;BME280;53575;51.366;12.350;2022-07-23T05:09:23;100284.59;;;18.06;82.27
66681;BME280;53575;51.366;12.350;2022-07-23T05:11:48;100316.50;;;18.01;81.50
66681;BME280;53575;51.366;12.350;2022-07-23T05:14:14;100335.22;;;17.95;80.27
66681;BME280;53575;51.366;12.350;2022-07-23T05:16:39;100335.94;;;17.74;81.58
66681;BME280;53575;51.366;12.350;2022-07-23T05:19:05;100341.56;;;17.65;84.09
66681;BME280;53575;51.366;12.350;2022-07-23T05:21:30;100333.53;;;17.68;83.86
66681;BME280;53575;51.366;12.350;2022-07-23T05:23:56;100303.44;;;17.72;83.47
66681;BME280;53575;51.366;12.350;2022-07-23T05:26:21;100292.25;;;17.90;83.66
66681;BME280;53575;51.366;12.350;2022-07-23T05:28:47;100275.75;;;17.84;85.36
66681;BME280;53575;51.366;12.350;2022-07-23T05:31:12;100276.50;;;17.87;84.14
66681;BME280;53575;51.366;12.350;2022-07-23T05:33:37;100274.97;;;17.80;85.24
66681;BME280;53575;51.366;12.350;2022-07-23T05:36:03;100303.88;;;18.10;82.50
66681;BME280;53575;51.366;12.350;2022-07-23T05:38:29;100321.03;;;17.98;84.28
66681;BME280;53575;51.366;12.350;2022-07-23T05:40:55;100308.59;;;17.76;84.14
66681;BME280;53575;51.366;12.350;2022-07-23T05:43:20;100296.50;;;17.94;83.92
66681;BME280;53575;51.366;12.350;2022-07-23T05:45:46;100294.31;;;17.82;83.66
66681;BME280;53575;51.366;12.350;2022-07-23T05:48:11;100311.78;;;17.86;84.63
66681;BME280;53575;51.366;12.350;2022-07-23T05:50:36;100343.88;;;17.74;84.25
66681;BME280;53575;51.366;12.350;2022-07-23T05:53:02;100346.78;;;17.93;83.19
66681;BME280;53575;51.366;12.350;2022-07-23T05:55:28;100329.81;;;17.75;84.45
66681;BME280;53575;51.366;12.350;2022-07-23T05:57:56;100317.69;;;17.93;85.07
66681;BME280;53575;51.366;12.350;2022-07-23T06:00:22;100311.81;;;18.10;83.93
66681;BME280;53575;51.366;12.350;2022-07-23T06:02:47;100289.78;;;18.09;84.26
66681;BME280;53575;51.366;12.350;2022-07-23T06:05:13;100275.06;;;18.02;83.95
66681;BME280;53575;51.366;12.350;2022-07-23T06:07:38;100275.16;;;17.99;84.39
66681;BME280;53575;51.366;12.350;2022-07-23T06:10:04;100304.66;;;17.88;85.60
66681;BME280;53575;51.366;12.350;2022-07-23T06:12:30;100290.38;;;17.92;85.20
66681;BME280;53575;51.366;12.350;2022-07-23T06:14:55;100292.06;;;17.95;85.01
66681;BME280;53575;51.366;12.350;2022-07-23T06:17:21;100310.47;;;17.98;86.54
66681;BME280;53575;51.366;12.350;2022-07-23T06:19:46;100305.94;;;18.01;86.37
66681;BME280;53575;51.366;12.350;2022-07-23T06:22:11;100301.50;;;18.02;85.93
66681;BME280;53575;51.366;12.350;2022-07-23T06:24:37;100287.06;;;18.11;85.95
66681;BME280;53575;51.366;12.350;2022-07-23T06:27:03;100295.09;;;18.08;85.44
66681;BME280;53575;51.366;12.350;2022-07-23T06:29:28;100301.25;;;18.08;85.38
66681;BME280;53575;51.366;12.350;2022-07-23T06:31:54;100297.56;;;18.12;85.46
66681;BME280;53575;51.366;12.350;2022-07-23T06:34:19;100303.50;;;18.19;85.55
66681;BME280;53575;51.366;12.350;2022-07-23T06:36:45;100309.38;;;18.27;85.67
66681;BME280;53575;51.366;12.350;2022-07-23T06:39:10;100315.09;;;18.38;85.13
66681;BME280;53575;51.366;12.350;2022-07-23T06:41:35;100317.53;;;18.44;84.92
66681;BME280;53575;51.366;12.350;2022-07-23T06:44:01;100316.50;;;18.48;84.52
66681;BME280;53575;51.366;12.350;2022-07-23T06:46:26;100316.31;;;18.53;84.71
66681;BME280;53575;51.366;12.350;2022-07-23T06:48:52;100318.53;;;18.64;83.52
66681;BME280;53575;51.366;12.350;2022-07-23T06:51:17;100320.91;;;18.71;82.37
66681;BME280;53575;51.366;12.350;2022-07-23T06:53:42;100317.53;;;18.44;83.77
66681;BME280;53575;51.366;12.350;2022-07-23T06:56:08;100324.44;;;18.48;84.26
66681;BME280;53575;51.366;12.350;2022-07-23T06:58:33;100328.44;;;18.35;84.62
66681;BME280;53575;51.366;12.350;2022-07-23T07:00:59;100326.50;;;18.40;83.53
66681;BME280;53575;51.366;12.350;2022-07-23T07:03:24;100321.97;;;18.44;82.99
66681;BME280;53575;51.366;12.350;2022-07-23T07:05:50;100329.09;;;18.42;84.54
66681;BME280;53575;51.366;12.350;2022-07-23T07:08:15;100329.09;;;18.42;83.66
66681;BME280;53575;51.366;12.350;2022-07-23T07:10:41;100342.22;;;18.45;83.80
66681;BME280;53575;51.366;12.350;2022-07-23T07:13:07;100348.59;;;18.39;82.13
66681;BME280;53575;51.366;12.350;2022-07-23T07:15:32;100353.91;;;18.39;82.83
66681;BME280;53575;51.366;12.350;2022-07-23T07:17:57;100355.66;;;18.39;83.79
66681;BME280;53575;51.366;12.350;2022-07-23T07:20:23;100349.19;;;18.47;81.43
66681;BME280;53575;51.366;12.350;2022-07-23T07:22:49;100349.31;;;18.43;83.79
66681;BME280;53575;51.366;12.350;2022-07-23T07:25:14;100355.31;;;18.48;83.91
66681;BME280;53575;51.366;12.350;2022-07-23T07:27:40;100316.16;;;18.34;81.65
66681;BME280;53575;51.366;12.350;2022-07-23T07:30:06;100358.84;;;18.48;83.54
66681;BME280;53575;51.366;12.350;2022-07-23T07:32:32;100349.31;;;18.43;83.25
66681;BME280;53575;51.366;12.350;2022-07-23T07:34:58;100354.22;;;18.30;83.55
66681;BME280;53575;51.366;12.350;2022-07-23T07:37:23;100353.53;;;18.25;84.49
66681;BME280;53575;51.366;12.350;2022-07-23T07:39:49;100361.38;;;18.28;85.49
66681;BME280;53575;51.366;12.350;2022-07-23T07:42:14;100368.28;;;18.32;84.90
66681;BME280;53575;51.366;12.350;2022-07-23T07:44:39;100368.09;;;18.37;83.65
66681;BME280;53575;51.366;12.350;2022-07-23T07:47:05;100363.78;;;18.34;84.56
66681;BME280;53575;51.366;12.350;2022-07-23T07:49:30;100366.09;;;18.43;84.71
66681;BME280;53575;51.366;12.350;2022-07-23T07:51:55;100360.88;;;18.64;84.47
66681;BME280;53575;51.366;12.350;2022-07-23T07:54:21;100368.28;;;18.79;83.64
66681;BME280;53575;51.366;12.350;2022-07-23T07:56:46;100369.34;;;18.97;82.55
66681;BME280;53575;51.366;12.350;2022-07-23T07:59:13;100375.72;;;19.13;81.27
66681;BME280;53575;51.366;12.350;2022-07-23T08:01:40;100373.31;;;19.29;79.55
66681;BME280;53575;51.366;12.350;2022-07-23T08:04:05;100374.78;;;19.36;79.49
66681;BME280;53575;51.366;12.350;2022-07-23T08:06:31;100356.38;;;19.33;80.36
66681;BME280;53575;51.366;12.350;2022-07-23T08:08:56;100360.59;;;19.37;80.93
66681;BME280;53575;51.366;12.350;2022-07-23T08:11:21;100367.63;;;19.38;80.98
66681;BME280;53575;51.366;12.350;2022-07-23T08:13:47;100370.16;;;19.41;79.67
66681;BME280;53575;51.366;12.350;2022-07-23T08:16:12;100371.81;;;19.44;79.23
66681;BME280;53575;51.366;12.350;2022-07-23T08:18:38;100372.06;;;19.38;77.97
66681;BME280;53575;51.366;12.350;2022-07-23T08:21:03;100367.34;;;19.46;78.16
66681;BME280;53575;51.366;12.350;2022-07-23T08:23:31;100379.22;;;19.58;78.24
66681;BME280;53575;51.366;12.350;2022-07-23T08:25:56;100387.00;;;19.62;78.57
66681;BME280;53575;51.366;12.350;2022-07-23T08:28:22;100381.03;;;19.78;77.63
66681;BME280;53575;51.366;12.350;2022-07-23T08:30:47;100385.16;;;19.85;76.70
66681;BME280;53575;51.366;12.350;2022-07-23T08:33:15;100388.78;;;19.60;78.23
66681;BME280;53575;51.366;12.350;2022-07-23T08:35:49;100383.94;;;19.71;77.67
66681;BME280;53575;51.366;12.350;2022-07-23T08:38:17;100394.22;;;19.79;77.52
66681;BME280;53575;51.366;12.350;2022-07-23T08:40:45;100402.78;;;19.65;76.45
66681;BME280;53575;51.366;12.350;2022-07-23T08:43:13;100407.56;;;19.56;77.34
66681;BME280;53575;51.366;12.350;2022-07-23T08:45:44;100405.63;;;19.39;77.91
66681;BME280;53575;51.366;12.350;2022-07-23T08:48:15;100402.06;;;19.38;78.48
66681;BME280;53575;51.366;12.350;2022-07-23T08:50:43;100408.09;;;19.42;78.74
66681;BME280;53575;51.366;12.350;2022-07-23T08:53:09;100413.28;;;19.45;78.03
66681;BME280;53575;51.366;12.350;2022-07-23T08:55:35;100409.03;;;19.41;78.61
66681;BME280;53575;51.366;12.350;2022-07-23T08:58:00;100399.50;;;19.37;78.77
66681;BME280;53575;51.366;12.350;2022-07-23T09:00:27;100401.91;;;19.43;77.22
66681;BME280;53575;51.366;12.350;2022-07-23T09:02:52;100401.78;;;19.24;78.31
66681;BME280;53575;51.366;12.350;2022-07-23T09:05:19;100416.34;;;19.36;78.30
66681;BME280;53575;51.366;12.350;2022-07-23T09:10:58;100428.84;;;19.32;78.98
66681;BME280;53575;51.366;12.350;2022-07-23T09:13:47;100425.50;;;19.05;79.88
66681;BME280;53575;51.366;12.350;2022-07-23T09:16:14;100423.78;;;19.04;78.56
66681;BME280;53575;51.366;12.350;2022-07-23T09:18:46;100430.97;;;19.22;78.49
66681;BME280;53575;51.366;12.350;2022-07-23T09:21:20;100440.25;;;19.12;79.40
66681;BME280;53575;51.366;12.350;2022-07-23T09:23:48;100440.03;;;18.95;79.68
66681;BME280;53575;51.366;12.350;2022-07-23T09:29:20;100447.13;;;18.69;81.52
66681;BME280;53575;51.366;12.350;2022-07-23T09:31:51;100445.16;;;18.76;80.52
66681;BME280;53575;51.366;12.350;2022-07-23T09:36:57;100434.09;;;18.88;79.93
66681;BME280;53575;51.366;12.350;2022-07-23T09:39:31;100449.00;;;18.91;80.52
66681;BME280;53575;51.366;12.350;2022-07-23T09:41:58;100449.97;;;18.88;80.41
66681;BME280;53575;51.366;12.350;2022-07-23T09:44:41;100434.63;;;18.74;80.94
66681;BME280;53575;51.366;12.350;2022-07-23T09:47:07;100440.34;;;19.09;79.09
66681;BME280;53575;51.366;12.350;2022-07-23T09:49:32;100437.19;;;18.99;79.72
66681;BME280;53575;51.366;12.350;2022-07-23T09:51:59;100445.94;;;19.02;79.54
66681;BME280;53575;51.366;12.350;2022-07-23T09:54:37;100447.19;;;19.15;77.50
66681;BME280;53575;51.366;12.350;2022-07-23T09:57:12;100453.63;;;19.08;77.79
66681;BME280;53575;51.366;12.350;2022-07-23T09:59:39;100455.66;;;19.24;76.82
66681;BME280;53575;51.366;12.350;2022-07-23T10:02:09;100458.59;;;19.17;77.93
66681;BME280;53575;51.366;12.350;2022-07-23T10:04:35;100451.81;;;19.10;76.02
66681;BME280;53575;51.366;12.350;2022-07-23T10:07:02;100457.97;;;19.10;75.87
66681;BME280;53575;51.366;12.350;2022-07-23T10:09:34;100468.94;;;19.01;76.36
66681;BME280;53575;51.366;12.350;2022-07-23T10:12:03;100458.72;;;19.14;75.56
66681;BME280;53575;51.366;12.350;2022-07-23T10:14:56;100458.28;;;19.24;76.28
66681;BME280;53575;51.366;12.350;2022-07-23T10:17:22;100462.66;;;19.47;76.74
66681;BME280;53575;51.366;12.350;2022-07-23T10:19:48;100463.41;;;19.51;75.61
66681;BME280;53575;51.366;12.350;2022-07-23T10:22:40;100455.78;;;19.65;73.83
66681;BME280;53575;51.366;12.350;2022-07-23T10:33:41;100469.66;;;19.50;73.70
66681;BME280;53575;51.366;12.350;2022-07-23T10:36:38;100470.34;;;19.77;73.13
66681;BME280;53575;51.366;12.350;2022-07-23T10:39:15;100465.03;;;19.77;72.43
66681;BME280;53575;51.366;12.350;2022-07-23T10:41:42;100467.22;;;19.44;74.06
66681;BME280;53575;51.366;12.350;2022-07-23T10:46:34;100457.56;;;19.65;74.50
66681;BME280;53575;51.366;12.350;2022-07-23T10:49:28;100462.09;;;19.83;74.53
66681;BME280;53575;51.366;12.350;2022-07-23T10:52:16;100466.53;;;19.83;74.55
66681;BME280;53575;51.366;12.350;2022-07-23T10:57:47;100458.28;;;19.68;75.82
66681;BME280;53575;51.366;12.350;2022-07-23T11:00:14;100458.91;;;19.75;75.77
66681;BME280;53575;51.366;12.350;2022-07-23T11:02:43;100467.81;;;19.74;76.34
66681;BME280;53575;51.366;12.350;2022-07-23T11:05:10;100468.25;;;19.63;76.75
66681;BME280;53575;51.366;12.350;2022-07-23T11:10:45;100480.41;;;19.69;75.17
66681;BME280;53575;51.366;12.350;2022-07-23T11:16:25;100479.13;;;19.56;75.65
66681;BME280;53575;51.366;12.350;2022-07-23T11:18:55;100476.25;;;19.62;75.76
66681;BME280;53575;51.366;12.350;2022-07-23T11:34:33;100468.38;;;20.23;72.78
66681;BME280;53575;51.366;12.350;2022-07-23T11:36:59;100466.25;;;20.31;72.11
66681;BME280;53575;51.366;12.350;2022-07-23T11:39:28;100456.34;;;20.35;71.68
66681;BME280;53575;51.366;12.350;2022-07-23T11:41:55;100461.53;;;20.38;71.54
66681;BME280;53575;51.366;12.350;2022-07-23T11:44:27;100463.75;;;20.67;70.84
66681;BME280;53575;51.366;12.350;2022-07-23T11:47:00;100457.72;;;20.83;69.96
66681;BME280;53575;51.366;12.350;2022-07-23T11:49:27;100453.13;;;20.86;68.89
66681;BME280;53575;51.366;12.350;2022-07-23T11:52:06;100449.00;;;21.00;69.36
66681;BME280;53575;51.366;12.350;2022-07-23T11:54:33;100454.94;;;21.05;69.31
66681;BME280;53575;51.366;12.350;2022-07-23T11:57:01;100442.00;;;21.16;68.17
66681;BME280;53575;51.366;12.350;2022-07-23T11:59:29;100447.56;;;20.92;69.11
66681;BME280;53575;51.366;12.350;2022-07-23T12:02:00;100447.41;;;21.14;68.41
66681;BME280;53575;51.366;12.350;2022-07-23T12:04:47;100455.75;;;21.07;68.33
66681;BME280;53575;51.366;12.350;2022-07-23T12:09:56;100451.28;;;21.26;67.56
66681;BME280;53575;51.366;12.350;2022-07-23T12:12:23;100450.84;;;21.35;67.02
66681;BME280;53575;51.366;12.350;2022-07-23T12:17:18;100453.69;;;21.50;67.39
66681;BME280;53575;51.366;12.350;2022-07-23T12:19:43;100449.72;;;21.41;67.65
66681;BME280;53575;51.366;12.350;2022-07-23T12:22:10;100447.53;;;21.49;67.29
66681;BME280;53575;51.366;12.350;2022-07-23T12:24:56;100444.56;;;21.73;67.25
66681;BME280;53575;51.366;12.350;2022-07-23T12:27:21;100452.47;;;21.74;65.89
66681;BME280;53575;51.366;12.350;2022-07-23T12:29:47;100446.53;;;21.33;67.26
66681;BME280;53575;51.366;12.350;2022-07-23T12:32:24;100459.66;;;21.17;67.40
66681;BME280;53575;51.366;12.350;2022-07-23T12:35:05;100453.97;;;21.25;66.89
66681;BME280;53575;51.366;12.350;2022-07-23T12:37:36;100459.66;;;21.17;66.77
66681;BME280;53575;51.366;12.350;2022-07-23T12:40:22;100453.84;;;21.28;66.94
66681;BME280;53575;51.366;12.350;2022-07-23T12:42:51;100451.56;;;21.39;65.29
66681;BME280;53575;51.366;12.350;2022-07-23T12:45:17;100454.84;;;21.25;66.45
66681;BME280;53575;51.366;12.350;2022-07-23T12:53:04;100441.81;;;21.74;64.72
66681;BME280;53575;51.366;12.350;2022-07-23T12:55:29;100443.34;;;21.44;65.59
66681;BME280;53575;51.366;12.350;2022-07-23T12:58:03;100444.25;;;21.61;64.88
66681;BME280;53575;51.366;12.350;2022-07-23T13:00:30;100436.13;;;21.64;64.95
66681;BME280;53575;51.366;12.350;2022-07-23T13:02:55;100434.94;;;21.70;64.59
66681;BME280;53575;51.366;12.350;2022-07-23T13:05:21;100430.59;;;21.86;64.63
66681;BME280;53575;51.366;12.350;2022-07-23T13:07:46;100430.41;;;21.72;63.96
66681;BME280;53575;51.366;12.350;2022-07-23T13:10:12;100426.53;;;21.43;65.09
66681;BME280;53575;51.366;12.350;2022-07-23T13:12:37;100401.91;;;21.21;65.42
66681;BME280;53575;51.366;12.350;2022-07-23T13:15:03;100415.91;;;21.43;65.72
66681;BME280;53575;51.366;12.350;2022-07-23T13:17:28;100418.59;;;21.60;65.71
66681;BME280;53575;51.366;12.350;2022-07-23T13:19:53;100408.59;;;22.18;64.39
66681;BME280;53575;51.366;12.350;2022-07-23T13:22:19;100414.34;;;22.08;63.77
66681;BME280;53575;51.366;12.350;2022-07-23T13:24:44;100409.47;;;22.18;63.25
66681;BME280;53575;51.366;12.350;2022-07-23T13:27:10;100399.66;;;22.19;63.71
66681;BME280;53575;51.366;12.350;2022-07-23T13:29:35;100394.22;;;22.37;63.42
66681;BME280;53575;51.366;12.350;2022-07-23T13:32:01;100410.19;;;22.37;62.69